sensor_id;sensor_type;location;lat;lon;timestamp;P1;durP1;ratioP1;P2;durP2;ratioP2
41739;SDS011;27422;52.444;13.300;2023-07-30T00:01:52;19.50;;;4.70;;
41739;SDS011;27422;52.444;13.300;2023-07-30T00:04:18;7.78;;;4.68;;
41739;SDS011;27422;52.444;13.300;2023-07-30T00:06:49;6.05;;;4.45;;
41739;SDS011;27422;52.444;13.300;2023-07-30T00:09:14;6.43;;;4.55;;
41739;SDS011;27422;52.444;13.300;2023-07-30T00:11:39;8.80;;;4.90;;
41739;SDS011;27422;52.444;13.300;2023-07-30T00:14:05;6.40;;;4.80;;
41739;SDS011;27422;52.444;13.300;2023-07-30T00:16:30;6.18;;;4.53;;
41739;SDS011;27422;52.444;13.300;2023-07-30T00:18:56;6.50;;;4.47;;
41739;SDS011;27422;52.444;13.300;2023-07-30T00:21:21;6.22;;;5.03;;
41739;SDS011;27422;52.444;13.300;2023-07-30T00:23:47;5.90;;;4.43;;
41739;SDS011;27422;52.444;13.300;2023-07-30T00:26:12;6.47;;;4.63;;
41739;SDS011;27422;52.444;13.300;2023-07-30T00:28:38;6.57;;;4.35;;
41739;SDS011;27422;52.444;13.300;2023-07-30T00:31:03;6.40;;;4.57;;
41739;SDS011;27422;52.444;13.300;2023-07-30T00:33:29;5.57;;;4.15;;
41739;SDS011;27422;52.444;13.300;2023-07-30T00:35:54;7.22;;;4.47;;
41739;SDS011;27422;52.444;13.300;2023-07-30T00:38:19;6.90;;;4.70;;
41739;SDS011;27422;52.444;13.300;2023-07-30T00:40:50;6.20;;;4.63;;
41739;SDS011;27422;52.444;13.300;2023-07-30T00:43:15;7.60;;;4.35;;
41739;SDS011;27422;52.444;13.300;2023-07-30T00:45:42;6.47;;;4.22;;
41739;SDS011;27422;52.444;13.300;2023-07-30T00:48:09;7.05;;;4.13;;
41739;SDS011;27422;52.444;13.300;2023-07-30T00:50:36;5.50;;;4.25;;
41739;SDS011;27422;52.444;13.300;2023-07-30T00:53:02;6.78;;;4.57;;
41739;SDS011;27422;52.444;13.300;2023-07-30T00:55:27;7.10;;;3.90;;
41739;SDS011;27422;52.444;13.300;2023-07-30T00:57:53;6.45;;;4.13;;
41739;SDS011;27422;52.444;13.300;2023-07-30T01:00:18;6.97;;;4.35;;
41739;SDS011;27422;52.444;13.300;2023-07-30T01:02:44;7.35;;;4.70;;
41739;SDS011;27422;52.444;13.300;2023-07-30T01:05:09;5.45;;;4.20;;
41739;SDS011;27422;52.444;13.300;2023-07-30T01:07:35;8.98;;;4.32;;
41739;SDS011;27422;52.444;13.300;2023-07-30T01:10:00;5.68;;;4.43;;
41739;SDS011;27422;52.444;13.300;2023-07-30T01:12:29;5.55;;;4.38;;
41739;SDS011;27422;52.444;13.300;2023-07-30T01:14:56;7.85;;;4.55;;
41739;SDS011;27422;52.444;13.300;2023-07-30T01:17:22;6.43;;;4.43;;
41739;SDS011;27422;52.444;13.300;2023-07-30T01:19:48;5.53;;;4.28;;
41739;SDS011;27422;52.444;13.300;2023-07-30T01:22:17;5.13;;;4.27;;
41739;SDS011;27422;52.444;13.300;2023-07-30T01:24:43;6.35;;;4.55;;
41739;SDS011;27422;52.444;13.300;2023-07-30T01:27:11;6.88;;;4.57;;
41739;SDS011;27422;52.444;13.300;2023-07-30T01:29:39;5.63;;;4.28;;
41739;SDS011;27422;52.444;13.300;2023-07-30T01:32:07;6.28;;;4.50;;
41739;SDS011;27422;52.444;13.300;2023-07-30T01:34:35;6.00;;;4.10;;
41739;SDS011;27422;52.444;13.300;2023-07-30T01:37:02;8.68;;;4.95;;
41739;SDS011;27422;52.444;13.300;2023-07-30T01:39:28;6.15;;;4.50;;
41739;SDS011;27422;52.444;13.300;2023-07-30T01:41:54;6.88;;;4.82;;
41739;SDS011;27422;52.444;13.300;2023-07-30T01:44:22;5.63;;;4.50;;
41739;SDS011;27422;52.444;13.300;2023-07-30T01:46:50;6.32;;;4.75;;
41739;SDS011;27422;52.444;13.300;2023-07-30T01:49:15;7.70;;;4.80;;
41739;SDS011;27422;52.444;13.300;2023-07-30T01:51:41;7.28;;;4.70;;
41739;SDS011;27422;52.444;13.300;2023-07-30T01:54:06;8.95;;;4.78;;
41739;SDS011;27422;52.444;13.300;2023-07-30T01:56:34;5.80;;;4.93;;
41739;SDS011;27422;52.444;13.300;2023-07-30T01:59:00;6.45;;;4.50;;
41739;SDS011;27422;52.444;13.300;2023-07-30T02:01:25;6.38;;;4.60;;
41739;SDS011;27422;52.444;13.300;2023-07-30T02:03:51;6.35;;;4.75;;
41739;SDS011;27422;52.444;13.300;2023-07-30T02:06:16;7.50;;;4.93;;
41739;SDS011;27422;52.444;13.300;2023-07-30T02:08:42;9.68;;;5.07;;
41739;SDS011;27422;52.444;13.300;2023-07-30T02:11:07;10.20;;;5.28;;
41739;SDS011;27422;52.444;13.300;2023-07-30T02:13:32;6.75;;;4.93;;
41739;SDS011;27422;52.444;13.300;2023-07-30T02:15:58;8.45;;;5.22;;
41739;SDS011;27422;52.444;13.300;2023-07-30T02:18:24;7.15;;;4.85;;
41739;SDS011;27422;52.444;13.300;2023-07-30T02:20:49;6.00;;;4.80;;
41739;SDS011;27422;52.444;13.300;2023-07-30T02:23:15;8.13;;;5.20;;
41739;SDS011;27422;52.444;13.300;2023-07-30T02:25:43;6.25;;;5.18;;
41739;SDS011;27422;52.444;13.300;2023-07-30T02:28:08;7.43;;;4.88;;
41739;SDS011;27422;52.444;13.300;2023-07-30T02:30:34;7.95;;;5.07;;
41739;SDS011;27422;52.444;13.300;2023-07-30T02:33:00;8.48;;;5.22;;
41739;SDS011;27422;52.444;13.300;2023-07-30T02:35:25;8.82;;;5.40;;
41739;SDS011;27422;52.444;13.300;2023-07-30T02:37:51;8.10;;;4.88;;
41739;SDS011;27422;52.444;13.300;2023-07-30T02:40:18;7.80;;;5.50;;
41739;SDS011;27422;52.444;13.300;2023-07-30T02:42:44;7.35;;;5.55;;
41739;SDS011;27422;52.444;13.300;2023-07-30T02:45:09;8.70;;;6.00;;
41739;SDS011;27422;52.444;13.300;2023-07-30T02:47:35;7.95;;;5.57;;
41739;SDS011;27422;52.444;13.300;2023-07-30T02:50:01;8.20;;;5.60;;
41739;SDS011;27422;52.444;13.300;2023-07-30T02:54:53;6.95;;;5.80;;
41739;SDS011;27422;52.444;13.300;2023-07-30T02:57:19;12.32;;;5.97;;
41739;SDS011;27422;52.444;13.300;2023-07-30T02:59:44;9.30;;;5.90;;
41739;SDS011;27422;52.444;13.300;2023-07-30T03:02:09;8.30;;;5.75;;
41739;SDS011;27422;52.444;13.300;2023-07-30T03:04:35;8.15;;;6.10;;
41739;SDS011;27422;52.444;13.300;2023-07-30T03:07:01;7.65;;;6.35;;
41739;SDS011;27422;52.444;13.300;2023-07-30T03:09:26;7.75;;;5.82;;
41739;SDS011;27422;52.444;13.300;2023-07-30T03:11:52;7.03;;;5.63;;
41739;SDS011;27422;52.444;13.300;2023-07-30T03:14:18;8.88;;;6.35;;
41739;SDS011;27422;52.444;13.300;2023-07-30T03:16:47;7.78;;;5.40;;
41739;SDS011;27422;52.444;13.300;2023-07-30T03:19:13;7.50;;;5.88;;
41739;SDS011;27422;52.444;13.300;2023-07-30T03:21:39;8.07;;;5.75;;
41739;SDS011;27422;52.444;13.300;2023-07-30T03:24:04;7.55;;;5.68;;
41739;SDS011;27422;52.444;13.300;2023-07-30T03:26:33;8.80;;;5.90;;
41739;SDS011;27422;52.444;13.300;2023-07-30T03:28:58;7.28;;;6.00;;
41739;SDS011;27422;52.444;13.300;2023-07-30T03:31:27;6.85;;;6.13;;
41739;SDS011;27422;52.444;13.300;2023-07-30T03:33:55;7.65;;;5.82;;
41739;SDS011;27422;52.444;13.300;2023-07-30T03:36:21;8.32;;;6.35;;
41739;SDS011;27422;52.444;13.300;2023-07-30T03:38:46;7.40;;;6.13;;
41739;SDS011;27422;52.444;13.300;2023-07-30T03:41:11;10.05;;;6.10;;
41739;SDS011;27422;52.444;13.300;2023-07-30T03:43:40;9.05;;;6.07;;
41739;SDS011;27422;52.444;13.300;2023-07-30T03:46:05;7.07;;;5.80;;
41739;SDS011;27422;52.444;13.300;2023-07-30T03:48:31;7.82;;;6.07;;
41739;SDS011;27422;52.444;13.300;2023-07-30T03:50:56;8.25;;;6.50;;
41739;SDS011;27422;52.444;13.300;2023-07-30T03:53:22;8.77;;;6.10;;
41739;SDS011;27422;52.444;13.300;2023-07-30T03:55:48;7.47;;;6.30;;
41739;SDS011;27422;52.444;13.300;2023-07-30T03:58:13;9.35;;;6.47;;
41739;SDS011;27422;52.444;13.300;2023-07-30T04:00:39;9.05;;;6.85;;
41739;SDS011;27422;52.444;13.300;2023-07-30T04:03:05;8.52;;;6.22;;
41739;SDS011;27422;52.444;13.300;2023-07-30T04:05:30;7.30;;;5.85;;
41739;SDS011;27422;52.444;13.300;2023-07-30T04:07:58;8.10;;;5.85;;
41739;SDS011;27422;52.444;13.300;2023-07-30T04:10:24;8.40;;;6.45;;
41739;SDS011;27422;52.444;13.300;2023-07-30T04:12:49;7.50;;;6.47;;
41739;SDS011;27422;52.444;13.300;2023-07-30T04:15:15;8.32;;;6.22;;
41739;SDS011;27422;52.444;13.300;2023-07-30T04:17:41;9.82;;;6.40;;
41739;SDS011;27422;52.444;13.300;2023-07-30T04:20:07;8.80;;;5.88;;
41739;SDS011;27422;52.444;13.300;2023-07-30T04:22:34;6.68;;;5.95;;
41739;SDS011;27422;52.444;13.300;2023-07-30T04:25:00;7.40;;;6.20;;
41739;SDS011;27422;52.444;13.300;2023-07-30T04:27:28;6.95;;;5.95;;
41739;SDS011;27422;52.444;13.300;2023-07-30T04:29:54;6.63;;;5.80;;
41739;SDS011;27422;52.444;13.300;2023-07-30T04:32:19;8.18;;;6.18;;
41739;SDS011;27422;52.444;13.300;2023-07-30T04:34:45;7.78;;;6.68;;
41739;SDS011;27422;52.444;13.300;2023-07-30T04:37:10;6.80;;;5.80;;
41739;SDS011;27422;52.444;13.300;2023-07-30T04:39:39;8.00;;;6.25;;
41739;SDS011;27422;52.444;13.300;2023-07-30T04:42:04;6.15;;;5.50;;
41739;SDS011;27422;52.444;13.300;2023-07-30T04:44:30;8.23;;;6.05;;
41739;SDS011;27422;52.444;13.300;2023-07-30T04:47:01;8.38;;;6.10;;
41739;SDS011;27422;52.444;13.300;2023-07-30T04:49:26;7.85;;;5.80;;
41739;SDS011;27422;52.444;13.300;2023-07-30T04:51:51;6.97;;;5.80;;
41739;SDS011;27422;52.444;13.300;2023-07-30T04:54:17;7.68;;;5.40;;
41739;SDS011;27422;52.444;13.300;2023-07-30T04:56:42;6.65;;;5.22;;
41739;SDS011;27422;52.444;13.300;2023-07-30T04:59:07;7.80;;;4.97;;
41739;SDS011;27422;52.444;13.300;2023-07-30T05:01:33;6.25;;;4.72;;
41739;SDS011;27422;52.444;13.300;2023-07-30T05:03:58;5.55;;;4.82;;
41739;SDS011;27422;52.444;13.300;2023-07-30T05:06:24;8.80;;;4.53;;
41739;SDS011;27422;52.444;13.300;2023-07-30T05:08:49;6.50;;;4.72;;
41739;SDS011;27422;52.444;13.300;2023-07-30T05:11:14;6.75;;;4.40;;
41739;SDS011;27422;52.444;13.300;2023-07-30T05:13:40;6.20;;;4.43;;
41739;SDS011;27422;52.444;13.300;2023-07-30T05:16:06;4.97;;;4.00;;
41739;SDS011;27422;52.444;13.300;2023-07-30T05:18:31;7.53;;;4.18;;
41739;SDS011;27422;52.444;13.300;2023-07-30T05:20:57;5.95;;;4.20;;
41739;SDS011;27422;52.444;13.300;2023-07-30T05:23:29;5.45;;;4.10;;
41739;SDS011;27422;52.444;13.300;2023-07-30T05:25:58;5.85;;;3.80;;
41739;SDS011;27422;52.444;13.300;2023-07-30T05:28:23;4.70;;;3.75;;
41739;SDS011;27422;52.444;13.300;2023-07-30T05:30:49;5.45;;;3.60;;
41739;SDS011;27422;52.444;13.300;2023-07-30T05:33:14;4.63;;;3.28;;
41739;SDS011;27422;52.444;13.300;2023-07-30T05:35:39;4.47;;;3.45;;
41739;SDS011;27422;52.444;13.300;2023-07-30T05:38:05;4.07;;;3.30;;
41739;SDS011;27422;52.444;13.300;2023-07-30T05:40:30;5.45;;;3.08;;
41739;SDS011;27422;52.444;13.300;2023-07-30T05:42:56;5.38;;;3.38;;
41739;SDS011;27422;52.444;13.300;2023-07-30T05:45:29;4.70;;;3.22;;
41739;SDS011;27422;52.444;13.300;2023-07-30T05:47:55;5.53;;;2.97;;
41739;SDS011;27422;52.444;13.300;2023-07-30T05:50:20;4.47;;;3.05;;
41739;SDS011;27422;52.444;13.300;2023-07-30T05:52:45;4.35;;;3.10;;
41739;SDS011;27422;52.444;13.300;2023-07-30T05:55:11;4.07;;;3.00;;
41739;SDS011;27422;52.444;13.300;2023-07-30T05:57:36;4.22;;;2.88;;
41739;SDS011;27422;52.444;13.300;2023-07-30T06:00:02;7.18;;;3.30;;
41739;SDS011;27422;52.444;13.300;2023-07-30T06:02:27;4.43;;;2.70;;
41739;SDS011;27422;52.444;13.300;2023-07-30T06:04:53;5.10;;;2.80;;
41739;SDS011;27422;52.444;13.300;2023-07-30T06:07:18;3.50;;;2.50;;
41739;SDS011;27422;52.444;13.300;2023-07-30T06:09:44;5.25;;;2.80;;
41739;SDS011;27422;52.444;13.300;2023-07-30T06:12:10;3.65;;;2.38;;
41739;SDS011;27422;52.444;13.300;2023-07-30T06:14:38;3.88;;;2.47;;
41739;SDS011;27422;52.444;13.300;2023-07-30T06:17:04;4.40;;;2.40;;
41739;SDS011;27422;52.444;13.300;2023-07-30T06:19:29;4.15;;;2.40;;
41739;SDS011;27422;52.444;13.300;2023-07-30T06:21:55;4.78;;;2.60;;
41739;SDS011;27422;52.444;13.300;2023-07-30T06:24:21;3.05;;;2.28;;
41739;SDS011;27422;52.444;13.300;2023-07-30T06:26:46;3.85;;;2.20;;
41739;SDS011;27422;52.444;13.300;2023-07-30T06:29:12;5.63;;;2.40;;
41739;SDS011;27422;52.444;13.300;2023-07-30T06:31:40;4.05;;;2.40;;
41739;SDS011;27422;52.444;13.300;2023-07-30T06:34:08;4.85;;;2.45;;
41739;SDS011;27422;52.444;13.300;2023-07-30T06:36:34;3.88;;;2.40;;
41739;SDS011;27422;52.444;13.300;2023-07-30T06:39:00;4.72;;;2.50;;
41739;SDS011;27422;52.444;13.300;2023-07-30T06:41:26;3.85;;;2.50;;
41739;SDS011;27422;52.444;13.300;2023-07-30T06:43:51;4.53;;;2.70;;
41739;SDS011;27422;52.444;13.300;2023-07-30T06:46:20;4.35;;;2.50;;
41739;SDS011;27422;52.444;13.300;2023-07-30T06:48:45;4.85;;;2.50;;
41739;SDS011;27422;52.444;13.300;2023-07-30T06:51:10;4.57;;;2.50;;
41739;SDS011;27422;52.444;13.300;2023-07-30T06:53:37;3.92;;;2.33;;
41739;SDS011;27422;52.444;13.300;2023-07-30T06:56:03;4.93;;;2.60;;
41739;SDS011;27422;52.444;13.300;2023-07-30T06:58:28;3.92;;;2.40;;
41739;SDS011;27422;52.444;13.300;2023-07-30T07:00:54;4.20;;;2.30;;
41739;SDS011;27422;52.444;13.300;2023-07-30T07:03:19;3.88;;;2.40;;
41739;SDS011;27422;52.444;13.300;2023-07-30T07:05:45;4.10;;;2.30;;
41739;SDS011;27422;52.444;13.300;2023-07-30T07:08:10;4.30;;;2.20;;
41739;SDS011;27422;52.444;13.300;2023-07-30T07:10:35;3.60;;;2.28;;
41739;SDS011;27422;52.444;13.300;2023-07-30T07:13:01;4.40;;;2.10;;
41739;SDS011;27422;52.444;13.300;2023-07-30T07:15:26;3.60;;;2.17;;
41739;SDS011;27422;52.444;13.300;2023-07-30T07:17:52;5.22;;;2.30;;
41739;SDS011;27422;52.444;13.300;2023-07-30T07:20:17;4.75;;;2.20;;
41739;SDS011;27422;52.444;13.300;2023-07-30T07:22:43;4.63;;;1.77;;
41739;SDS011;27422;52.444;13.300;2023-07-30T07:25:08;5.55;;;2.00;;
41739;SDS011;27422;52.444;13.300;2023-07-30T07:27:34;3.10;;;1.80;;
41739;SDS011;27422;52.444;13.300;2023-07-30T07:29:59;3.50;;;2.00;;
41739;SDS011;27422;52.444;13.300;2023-07-30T07:32:25;3.70;;;1.83;;
41739;SDS011;27422;52.444;13.300;2023-07-30T07:34:50;3.50;;;1.80;;
41739;SDS011;27422;52.444;13.300;2023-07-30T07:37:16;4.47;;;2.03;;
41739;SDS011;27422;52.444;13.300;2023-07-30T07:39:43;3.63;;;1.80;;
41739;SDS011;27422;52.444;13.300;2023-07-30T07:42:09;3.95;;;1.67;;
41739;SDS011;27422;52.444;13.300;2023-07-30T07:44:37;3.72;;;2.08;;
41739;SDS011;27422;52.444;13.300;2023-07-30T07:47:05;4.85;;;1.45;;
41739;SDS011;27422;52.444;13.300;2023-07-30T07:49:34;3.42;;;1.77;;
41739;SDS011;27422;52.444;13.300;2023-07-30T07:51:59;5.75;;;1.80;;
41739;SDS011;27422;52.444;13.300;2023-07-30T07:54:25;3.30;;;1.77;;
41739;SDS011;27422;52.444;13.300;2023-07-30T07:56:50;3.78;;;1.90;;
41739;SDS011;27422;52.444;13.300;2023-07-30T07:59:15;4.97;;;1.85;;
41739;SDS011;27422;52.444;13.300;2023-07-30T08:01:44;2.80;;;1.60;;
41739;SDS011;27422;52.444;13.300;2023-07-30T08:04:10;7.55;;;1.90;;
41739;SDS011;27422;52.444;13.300;2023-07-30T08:06:35;5.18;;;1.90;;
41739;SDS011;27422;52.444;13.300;2023-07-30T08:09:01;3.92;;;2.00;;
41739;SDS011;27422;52.444;13.300;2023-07-30T08:11:26;6.97;;;1.90;;
41739;SDS011;27422;52.444;13.300;2023-07-30T08:13:52;4.60;;;1.77;;
41739;SDS011;27422;52.444;13.300;2023-07-30T08:16:17;5.47;;;1.70;;
41739;SDS011;27422;52.444;13.300;2023-07-30T08:18:43;3.17;;;1.70;;
41739;SDS011;27422;52.444;13.300;2023-07-30T08:21:08;3.67;;;1.70;;
41739;SDS011;27422;52.444;13.300;2023-07-30T08:23:34;4.68;;;1.80;;
41739;SDS011;27422;52.444;13.300;2023-07-30T08:25:59;3.38;;;1.65;;
41739;SDS011;27422;52.444;13.300;2023-07-30T08:28:25;2.95;;;1.60;;
41739;SDS011;27422;52.444;13.300;2023-07-30T08:30:50;3.92;;;1.52;;
41739;SDS011;27422;52.444;13.300;2023-07-30T08:33:16;3.50;;;1.50;;
41739;SDS011;27422;52.444;13.300;2023-07-30T08:35:47;3.15;;;1.50;;
41739;SDS011;27422;52.444;13.300;2023-07-30T08:38:12;4.00;;;1.35;;
41739;SDS011;27422;52.444;13.300;2023-07-30T08:40:38;3.95;;;1.50;;
41739;SDS011;27422;52.444;13.300;2023-07-30T08:43:03;5.07;;;1.50;;
41739;SDS011;27422;52.444;13.300;2023-07-30T08:45:31;2.47;;;1.30;;
41739;SDS011;27422;52.444;13.300;2023-07-30T08:47:59;3.33;;;1.70;;
41739;SDS011;27422;52.444;13.300;2023-07-30T08:50:25;3.83;;;1.55;;
41739;SDS011;27422;52.444;13.300;2023-07-30T08:52:51;4.38;;;1.60;;
41739;SDS011;27422;52.444;13.300;2023-07-30T08:55:29;4.57;;;1.83;;
41739;SDS011;27422;52.444;13.300;2023-07-30T08:57:58;3.25;;;1.65;;
41739;SDS011;27422;52.444;13.300;2023-07-30T09:00:26;4.30;;;1.58;;
41739;SDS011;27422;52.444;13.300;2023-07-30T09:03:01;4.30;;;1.50;;
41739;SDS011;27422;52.444;13.300;2023-07-30T09:05:31;3.47;;;1.40;;
41739;SDS011;27422;52.444;13.300;2023-07-30T09:07:56;4.75;;;1.73;;
41739;SDS011;27422;52.444;13.300;2023-07-30T09:10:22;2.88;;;1.35;;
41739;SDS011;27422;52.444;13.300;2023-07-30T09:12:55;2.58;;;1.15;;
41739;SDS011;27422;52.444;13.300;2023-07-30T09:15:29;4.32;;;1.52;;
41739;SDS011;27422;52.444;13.300;2023-07-30T09:17:59;3.92;;;1.60;;
41739;SDS011;27422;52.444;13.300;2023-07-30T09:20:25;3.80;;;1.40;;
41739;SDS011;27422;52.444;13.300;2023-07-30T09:22:51;6.65;;;1.60;;
41739;SDS011;27422;52.444;13.300;2023-07-30T09:25:20;3.45;;;1.45;;
41739;SDS011;27422;52.444;13.300;2023-07-30T09:27:49;3.28;;;1.23;;
41739;SDS011;27422;52.444;13.300;2023-07-30T09:30:21;2.95;;;1.10;;
41739;SDS011;27422;52.444;13.300;2023-07-30T09:32:56;4.45;;;1.35;;
41739;SDS011;27422;52.444;13.300;2023-07-30T09:35:25;4.15;;;1.20;;
41739;SDS011;27422;52.444;13.300;2023-07-30T09:37:57;3.00;;;1.10;;
41739;SDS011;27422;52.444;13.300;2023-07-30T09:40:33;3.33;;;1.40;;
41739;SDS011;27422;52.444;13.300;2023-07-30T09:43:01;4.30;;;1.30;;
41739;SDS011;27422;52.444;13.300;2023-07-30T09:45:28;3.28;;;1.25;;
41739;SDS011;27422;52.444;13.300;2023-07-30T09:47:56;2.72;;;1.15;;
41739;SDS011;27422;52.444;13.300;2023-07-30T09:50:29;2.90;;;1.30;;
41739;SDS011;27422;52.444;13.300;2023-07-30T09:52:55;3.22;;;1.20;;
41739;SDS011;27422;52.444;13.300;2023-07-30T09:55:21;2.83;;;1.13;;
41739;SDS011;27422;52.444;13.300;2023-07-30T09:57:46;3.53;;;1.20;;
41739;SDS011;27422;52.444;13.300;2023-07-30T10:00:12;2.38;;;1.05;;
41739;SDS011;27422;52.444;13.300;2023-07-30T10:02:38;3.10;;;1.00;;
41739;SDS011;27422;52.444;13.300;2023-07-30T10:05:15;2.95;;;1.20;;
41739;SDS011;27422;52.444;13.300;2023-07-30T10:10:18;8.75;;;1.75;;
41739;SDS011;27422;52.444;13.300;2023-07-30T10:12:45;3.78;;;1.40;;
41739;SDS011;27422;52.444;13.300;2023-07-30T10:15:14;3.53;;;1.00;;
41739;SDS011;27422;52.444;13.300;2023-07-30T10:17:52;2.95;;;1.02;;
41739;SDS011;27422;52.444;13.300;2023-07-30T10:20:24;5.28;;;1.17;;
41739;SDS011;27422;52.444;13.300;2023-07-30T10:22:54;2.88;;;0.95;;
41739;SDS011;27422;52.444;13.300;2023-07-30T10:25:22;3.05;;;1.20;;
41739;SDS011;27422;52.444;13.300;2023-07-30T10:27:52;4.10;;;1.00;;
41739;SDS011;27422;52.444;13.300;2023-07-30T10:30:18;3.17;;;1.20;;
41739;SDS011;27422;52.444;13.300;2023-07-30T10:38:00;3.20;;;1.17;;
41739;SDS011;27422;52.444;13.300;2023-07-30T10:40:40;3.28;;;1.20;;
41739;SDS011;27422;52.444;13.300;2023-07-30T10:43:15;2.80;;;1.23;;
41739;SDS011;27422;52.444;13.300;2023-07-30T10:45:50;3.83;;;1.40;;
41739;SDS011;27422;52.444;13.300;2023-07-30T10:48:18;3.08;;;1.20;;
41739;SDS011;27422;52.444;13.300;2023-07-30T10:50:46;3.95;;;1.25;;
41739;SDS011;27422;52.444;13.300;2023-07-30T10:53:14;4.07;;;1.20;;
41739;SDS011;27422;52.444;13.300;2023-07-30T10:55:41;4.03;;;1.27;;
41739;SDS011;27422;52.444;13.300;2023-07-30T10:58:13;2.75;;;0.95;;
41739;SDS011;27422;52.444;13.300;2023-07-30T11:00:39;3.42;;;1.10;;
41739;SDS011;27422;52.444;13.300;2023-07-30T11:03:04;2.33;;;1.00;;
41739;SDS011;27422;52.444;13.300;2023-07-30T11:05:30;3.55;;;0.88;;
41739;SDS011;27422;52.444;13.300;2023-07-30T11:07:55;4.03;;;1.15;;
41739;SDS011;27422;52.444;13.300;2023-07-30T11:10:21;2.80;;;0.95;;
41739;SDS011;27422;52.444;13.300;2023-07-30T11:12:50;5.55;;;1.00;;
41739;SDS011;27422;52.444;13.300;2023-07-30T11:15:16;3.28;;;1.10;;
41739;SDS011;27422;52.444;13.300;2023-07-30T11:17:42;3.45;;;1.08;;
41739;SDS011;27422;52.444;13.300;2023-07-30T11:20:21;4.93;;;1.23;;
41739;SDS011;27422;52.444;13.300;2023-07-30T11:22:47;4.55;;;1.30;;
41739;SDS011;27422;52.444;13.300;2023-07-30T11:25:16;3.25;;;1.20;;
41739;SDS011;27422;52.444;13.300;2023-07-30T11:27:48;4.03;;;1.17;;
41739;SDS011;27422;52.444;13.300;2023-07-30T11:30:14;3.13;;;0.95;;
41739;SDS011;27422;52.444;13.300;2023-07-30T11:32:39;5.45;;;1.17;;
41739;SDS011;27422;52.444;13.300;2023-07-30T11:35:07;4.25;;;1.15;;
41739;SDS011;27422;52.444;13.300;2023-07-30T11:37:32;3.30;;;1.00;;
41739;SDS011;27422;52.444;13.300;2023-07-30T11:39:58;4.57;;;1.05;;
41739;SDS011;27422;52.444;13.300;2023-07-30T11:42:24;4.00;;;0.95;;
41739;SDS011;27422;52.444;13.300;2023-07-30T11:44:53;3.53;;;1.00;;
41739;SDS011;27422;52.444;13.300;2023-07-30T11:47:21;4.25;;;1.30;;
41739;SDS011;27422;52.444;13.300;2023-07-30T11:49:56;3.20;;;1.10;;
41739;SDS011;27422;52.444;13.300;2023-07-30T11:52:24;4.35;;;1.48;;
41739;SDS011;27422;52.444;13.300;2023-07-30T11:55:02;2.90;;;1.00;;
41739;SDS011;27422;52.444;13.300;2023-07-30T11:57:34;4.10;;;1.30;;
41739;SDS011;27422;52.444;13.300;2023-07-30T12:00:00;3.70;;;1.00;;
41739;SDS011;27422;52.444;13.300;2023-07-30T12:02:26;3.35;;;1.00;;
41739;SDS011;27422;52.444;13.300;2023-07-30T12:04:51;4.25;;;1.50;;
41739;SDS011;27422;52.444;13.300;2023-07-30T12:07:23;4.05;;;1.25;;
41739;SDS011;27422;52.444;13.300;2023-07-30T12:09:51;3.80;;;1.10;;
41739;SDS011;27422;52.444;13.300;2023-07-30T12:12:26;3.65;;;1.10;;
41739;SDS011;27422;52.444;13.300;2023-07-30T12:14:53;3.90;;;1.17;;
41739;SDS011;27422;52.444;13.300;2023-07-30T12:17:19;3.30;;;1.00;;
41739;SDS011;27422;52.444;13.300;2023-07-30T12:19:45;4.95;;;1.55;;
41739;SDS011;27422;52.444;13.300;2023-07-30T12:22:10;4.13;;;1.40;;
41739;SDS011;27422;52.444;13.300;2023-07-30T12:24:36;4.88;;;1.20;;
41739;SDS011;27422;52.444;13.300;2023-07-30T12:27:01;4.05;;;1.50;;
41739;SDS011;27422;52.444;13.300;2023-07-30T12:29:27;5.05;;;1.50;;
41739;SDS011;27422;52.444;13.300;2023-07-30T12:31:52;4.32;;;1.27;;
41739;SDS011;27422;52.444;13.300;2023-07-30T12:34:22;5.38;;;1.30;;
41739;SDS011;27422;52.444;13.300;2023-07-30T12:36:48;2.80;;;1.27;;
41739;SDS011;27422;52.444;13.300;2023-07-30T12:39:16;3.97;;;1.52;;
41739;SDS011;27422;52.444;13.300;2023-07-30T12:41:41;3.72;;;1.40;;
41739;SDS011;27422;52.444;13.300;2023-07-30T12:44:09;3.88;;;1.40;;
41739;SDS011;27422;52.444;13.300;2023-07-30T12:46:42;6.05;;;1.60;;
41739;SDS011;27422;52.444;13.300;2023-07-30T12:49:08;4.72;;;1.60;;
41739;SDS011;27422;52.444;13.300;2023-07-30T12:51:33;4.60;;;1.50;;
41739;SDS011;27422;52.444;13.300;2023-07-30T12:53:59;3.90;;;1.40;;
41739;SDS011;27422;52.444;13.300;2023-07-30T12:56:28;5.70;;;1.60;;
41739;SDS011;27422;52.444;13.300;2023-07-30T12:58:53;3.65;;;1.42;;
41739;SDS011;27422;52.444;13.300;2023-07-30T13:01:19;2.97;;;1.15;;
41739;SDS011;27422;52.444;13.300;2023-07-30T13:03:44;3.63;;;1.30;;
41739;SDS011;27422;52.444;13.300;2023-07-30T13:06:10;6.18;;;1.60;;
41739;SDS011;27422;52.444;13.300;2023-07-30T13:08:36;3.58;;;1.33;;
41739;SDS011;27422;52.444;13.300;2023-07-30T13:11:02;3.92;;;1.58;;
41739;SDS011;27422;52.444;13.300;2023-07-30T13:13:27;3.30;;;1.40;;
41739;SDS011;27422;52.444;13.300;2023-07-30T13:15:53;3.67;;;1.38;;
41739;SDS011;27422;52.444;13.300;2023-07-30T13:18:25;5.75;;;2.17;;
41739;SDS011;27422;52.444;13.300;2023-07-30T13:20:51;4.05;;;1.48;;
41739;SDS011;27422;52.444;13.300;2023-07-30T13:23:16;3.92;;;1.67;;
41739;SDS011;27422;52.444;13.300;2023-07-30T13:25:42;4.35;;;1.70;;
41739;SDS011;27422;52.444;13.300;2023-07-30T13:28:07;3.20;;;1.63;;
41739;SDS011;27422;52.444;13.300;2023-07-30T13:30:34;3.65;;;1.50;;
41739;SDS011;27422;52.444;13.300;2023-07-30T13:32:59;4.18;;;1.60;;
41739;SDS011;27422;52.444;13.300;2023-07-30T13:35:24;3.92;;;1.58;;
41739;SDS011;27422;52.444;13.300;2023-07-30T13:37:50;2.42;;;1.17;;
41739;SDS011;27422;52.444;13.300;2023-07-30T13:40:15;4.10;;;1.70;;
41739;SDS011;27422;52.444;13.300;2023-07-30T13:42:41;4.50;;;1.58;;
41739;SDS011;27422;52.444;13.300;2023-07-30T13:45:06;3.13;;;1.30;;
41739;SDS011;27422;52.444;13.300;2023-07-30T13:47:32;4.03;;;1.30;;
41739;SDS011;27422;52.444;13.300;2023-07-30T13:49:57;3.63;;;1.30;;
41739;SDS011;27422;52.444;13.300;2023-07-30T13:52:23;2.60;;;1.08;;
41739;SDS011;27422;52.444;13.300;2023-07-30T13:54:51;2.88;;;0.98;;
41739;SDS011;27422;52.444;13.300;2023-07-30T13:57:22;2.90;;;1.00;;
41739;SDS011;27422;52.444;13.300;2023-07-30T13:59:53;2.85;;;1.08;;
41739;SDS011;27422;52.444;13.300;2023-07-30T14:02:21;2.53;;;0.85;;
41739;SDS011;27422;52.444;13.300;2023-07-30T14:04:47;3.50;;;0.90;;
41739;SDS011;27422;52.444;13.300;2023-07-30T14:07:12;3.05;;;0.85;;
41739;SDS011;27422;52.444;13.300;2023-07-30T14:09:38;3.88;;;0.80;;
41739;SDS011;27422;52.444;13.300;2023-07-30T14:12:03;3.55;;;1.00;;
41739;SDS011;27422;52.444;13.300;2023-07-30T14:14:32;2.95;;;0.88;;
41739;SDS011;27422;52.444;13.300;2023-07-30T14:16:58;3.22;;;0.80;;
41739;SDS011;27422;52.444;13.300;2023-07-30T14:19:23;3.75;;;1.10;;
41739;SDS011;27422;52.444;13.300;2023-07-30T14:21:49;3.13;;;1.02;;
41739;SDS011;27422;52.444;13.300;2023-07-30T14:24:14;3.85;;;1.10;;
41739;SDS011;27422;52.444;13.300;2023-07-30T14:26:40;4.70;;;1.10;;
41739;SDS011;27422;52.444;13.300;2023-07-30T14:29:05;4.70;;;1.13;;
41739;SDS011;27422;52.444;13.300;2023-07-30T14:31:31;4.22;;;1.27;;
41739;SDS011;27422;52.444;13.300;2023-07-30T14:33:56;3.22;;;1.08;;
41739;SDS011;27422;52.444;13.300;2023-07-30T14:36:22;5.70;;;1.40;;
41739;SDS011;27422;52.444;13.300;2023-07-30T14:38:48;3.92;;;1.00;;
41739;SDS011;27422;52.444;13.300;2023-07-30T14:41:13;5.47;;;1.20;;